sensor_id;sensor_type;location;lat;lon;timestamp;pressure;altitude;pressure_sealevel;temperature;humidity
18436;BME280;9346;52.006;4.720;2023-01-15T00:01:31;99668.31;;;8.78;100.00
18436;BME280;9346;52.006;4.720;2023-01-15T00:04:00;99670.53;;;8.76;100.00
18436;BME280;9346;52.006;4.720;2023-01-15T00:06:28;99674.91;;;8.77;100.00
18436;BME280;9346;52.006;4.720;2023-01-15T00:08:55;99677.13;;;8.75;100.00
18436;BME280;9346;52.006;4.720;2023-01-15T00:11:23;99674.38;;;8.75;100.00
18436;BME280;9346;52.006;4.720;2023-01-15T00:13:50;99667.22;;;8.74;100.00
18436;BME280;9346;52.006;4.720;2023-01-15T00:16:19;99668.59;;;8.76;100.00
18436;BME280;9346;52.006;4.720;2023-01-15T00:18:53;99670.53;;;8.76;100.00
18436;BME280;9346;52.006;4.720;2023-01-15T00:21:21;99659.81;;;8.74;100.00
18436;BME280;9346;52.006;4.720;2023-01-15T00:23:48;99659.28;;;8.72;100.00
18436;BME280;9346;52.006;4.720;2023-01-15T00:26:33;99660.13;;;8.73;100.00
18436;BME280;9346;52.006;4.720;2023-01-15T00:29:18;99666.72;;;8.72;100.00
18436;BME280;9346;52.006;4.720;2023-01-15T00:31:51;99660.69;;;8.70;100.00
18436;BME280;9346;52.006;4.720;2023-01-15T00:34:21;99661.53;;;8.70;100.00
18436;BME280;9346;52.006;4.720;2023-01-15T00:36:49;99660.41;;;8.71;100.00
18436;BME280;9346;52.006;4.720;2023-01-15T00:39:16;99647.78;;;8.70;100.00
18436;BME280;9346;52.006;4.720;2023-01-15T00:41:43;99645.63;;;8.67;100.00
18436;BME280;9346;52.006;4.720;2023-01-15T00:44:10;99656.63;;;8.67;100.00
18436;BME280;9346;52.006;4.720;2023-01-15T00:46:37;99660.44;;;8.66;100.00
18436;BME280;9346;52.006;4.720;2023-01-15T00:49:04;99658.53;;;8.67;100.00
18436;BME280;9346;52.006;4.720;2023-01-15T00:51:33;99661.56;;;8.65;100.00
18436;BME280;9346;52.006;4.720;2023-01-15T00:54:00;99645.38;;;8.64;100.00
18436;BME280;9346;52.006;4.720;2023-01-15T00:56:27;99658.81;;;8.65;100.00
18436;BME280;9346;52.006;4.720;2023-01-15T00:58:54;99660.22;;;8.63;100.00
18436;BME280;9346;52.006;4.720;2023-01-15T01:01:22;99658.59;;;8.62;100.00
18436;BME280;9346;52.006;4.720;2023-01-15T01:03:49;99656.13;;;8.60;100.00
18436;BME280;9346;52.006;4.720;2023-01-15T01:06:17;99661.09;;;8.58;100.00
18436;BME280;9346;52.006;4.720;2023-01-15T01:08:47;99667.13;;;8.60;100.00
18436;BME280;9346;52.006;4.720;2023-01-15T01:11:15;99665.47;;;8.59;100.00
18436;BME280;9346;52.006;4.720;2023-01-15T01:13:43;99670.16;;;8.59;100.00
18436;BME280;9346;52.006;4.720;2023-01-15T01:16:25;99661.63;;;8.60;100.00
18436;BME280;9346;52.006;4.720;2023-01-15T01:18:55;99658.63;;;8.57;100.00
18436;BME280;9346;52.006;4.720;2023-01-15T01:21:22;99671.53;;;8.56;100.00
18436;BME280;9346;52.006;4.720;2023-01-15T01:23:51;99669.91;;;8.55;100.00
18436;BME280;9346;52.006;4.720;2023-01-15T01:26:18;99657.00;;;8.56;100.00
18436;BME280;9346;52.006;4.720;2023-01-15T01:28:49;99676.50;;;8.54;100.00
18436;BME280;9346;52.006;4.720;2023-01-15T01:31:18;99676.50;;;8.54;100.00
18436;BME280;9346;52.006;4.720;2023-01-15T01:33:47;99683.63;;;8.55;100.00
18436;BME280;9346;52.006;4.720;2023-01-15T01:36:14;99664.69;;;8.54;100.00
18436;BME280;9346;52.006;4.720;2023-01-15T01:38:41;99665.81;;;8.53;100.00
18436;BME280;9346;52.006;4.720;2023-01-15T01:41:10;99668.56;;;8.53;100.00
18436;BME280;9346;52.006;4.720;2023-01-15T01:43:52;99663.34;;;8.51;100.00
18436;BME280;9346;52.006;4.720;2023-01-15T01:46:19;99673.78;;;8.49;100.00
18436;BME280;9346;52.006;4.720;2023-01-15T01:48:48;99688.91;;;8.47;100.00
18436;BME280;9346;52.006;4.720;2023-01-15T01:51:17;99683.13;;;8.48;100.00
18436;BME280;9346;52.006;4.720;2023-01-15T01:53:45;99681.50;;;8.47;100.00
18436;BME280;9346;52.006;4.720;2023-01-15T01:56:14;99678.78;;;8.47;100.00
18436;BME280;9346;52.006;4.720;2023-01-15T01:58:44;99685.88;;;8.48;100.00
18436;BME280;9346;52.006;4.720;2023-01-15T02:01:13;99678.22;;;8.45;100.00
18436;BME280;9346;52.006;4.720;2023-01-15T02:03:40;99686.47;;;8.45;100.00
18436;BME280;9346;52.006;4.720;2023-01-15T02:06:09;99677.41;;;8.45;100.00
18436;BME280;9346;52.006;4.720;2023-01-15T02:08:36;99682.38;;;8.43;100.00
18436;BME280;9346;52.006;4.720;2023-01-15T02:11:05;99678.25;;;8.40;100.00
18436;BME280;9346;52.006;4.720;2023-01-15T02:13:37;99671.44;;;8.38;100.00
18436;BME280;9346;52.006;4.720;2023-01-15T02:16:08;99673.34;;;8.37;100.00
18436;BME280;9346;52.006;4.720;2023-01-15T02:18:43;99670.31;;;8.39;100.00
18436;BME280;9346;52.006;4.720;2023-01-15T02:21:21;99668.41;;;8.39;100.00
18436;BME280;9346;52.006;4.720;2023-01-15T02:24:01;99656.88;;;8.37;100.00
18436;BME280;9346;52.006;4.720;2023-01-15T02:27:04;99647.03;;;8.36;100.00
18436;BME280;9346;52.006;4.720;2023-01-15T02:29:37;99651.16;;;8.34;100.00
18436;BME280;9346;52.006;4.720;2023-01-15T02:32:09;99669.53;;;8.33;100.00
18436;BME280;9346;52.006;4.720;2023-01-15T02:34:42;99656.94;;;8.32;100.00
18436;BME280;9346;52.006;4.720;2023-01-15T02:37:13;99651.47;;;8.32;100.00
18436;BME280;9346;52.006;4.720;2023-01-15T02:39:44;99651.75;;;8.31;100.00
18436;BME280;9346;52.006;4.720;2023-01-15T02:42:16;99660.81;;;8.31;100.00
18436;BME280;9346;52.006;4.720;2023-01-15T02:44:46;99659.97;;;8.31;100.00
18436;BME280;9346;52.006;4.720;2023-01-15T02:47:16;99664.91;;;8.29;100.00
18436;BME280;9346;52.006;4.720;2023-01-15T02:49:46;99663.28;;;8.28;100.00
18436;BME280;9346;52.006;4.720;2023-01-15T02:52:17;99660.53;;;8.28;100.00
18436;BME280;9346;52.006;4.720;2023-01-15T02:54:47;99658.09;;;8.26;100.00
18436;BME280;9346;52.006;4.720;2023-01-15T02:57:19;99657.53;;;8.24;100.00
18436;BME280;9346;52.006;4.720;2023-01-15T02:59:49;99645.50;;;8.25;100.00
18436;BME280;9346;52.006;4.720;2023-01-15T03:02:20;99653.72;;;8.25;100.00
18436;BME280;9346;52.006;4.720;2023-01-15T03:04:51;99645.78;;;8.24;100.00
18436;BME280;9346;52.006;4.720;2023-01-15T03:07:24;99653.47;;;8.22;100.00
18436;BME280;9346;52.006;4.720;2023-01-15T03:09:53;99659.78;;;8.22;100.00
18436;BME280;9346;52.006;4.720;2023-01-15T03:12:27;99649.34;;;8.19;100.00
18436;BME280;9346;52.006;4.720;2023-01-15T03:15:00;99653.47;;;8.22;100.00
18436;BME280;9346;52.006;4.720;2023-01-15T03:17:34;99644.97;;;8.18;100.00
18436;BME280;9346;52.006;4.720;2023-01-15T03:20:06;99651.53;;;8.17;100.00
18436;BME280;9346;52.006;4.720;2023-01-15T03:22:37;99637.03;;;8.17;100.00
18436;BME280;9346;52.006;4.720;2023-01-15T03:25:09;99638.69;;;8.13;100.00
18436;BME280;9346;52.006;4.720;2023-01-15T03:27:39;99640.66;;;8.07;100.00
18436;BME280;9346;52.006;4.720;2023-01-15T03:30:09;99635.75;;;8.04;100.00
18436;BME280;9346;52.006;4.720;2023-01-15T03:32:36;99632.50;;;8.02;100.00
18436;BME280;9346;52.006;4.720;2023-01-15T03:35:04;99643.19;;;7.99;100.00
18436;BME280;9346;52.006;4.720;2023-01-15T03:37:32;99644.88;;;7.95;100.00
18436;BME280;9346;52.006;4.720;2023-01-15T03:39:59;99650.66;;;7.93;100.00
18436;BME280;9346;52.006;4.720;2023-01-15T03:42:34;99643.50;;;7.92;100.00
18436;BME280;9346;52.006;4.720;2023-01-15T03:45:11;99641.59;;;7.93;100.00
18436;BME280;9346;52.006;4.720;2023-01-15T03:47:48;99649.31;;;7.91;100.00
18436;BME280;9346;52.006;4.720;2023-01-15T03:50:26;99635.59;;;7.91;100.00
18436;BME280;9346;52.006;4.720;2023-01-15T03:52:58;99631.78;;;7.87;100.00
18436;BME280;9346;52.006;4.720;2023-01-15T03:55:34;99642.44;;;7.88;100.00
18436;BME280;9346;52.006;4.720;2023-01-15T03:58:07;99631.19;;;7.90;100.00
18436;BME280;9346;52.006;4.720;2023-01-15T04:00:41;99647.66;;;7.90;100.00
18436;BME280;9346;52.006;4.720;2023-01-15T04:03:11;99648.47;;;7.90;100.00
18436;BME280;9346;52.006;4.720;2023-01-15T04:05:39;99643.28;;;7.89;100.00
18436;BME280;9346;52.006;4.720;2023-01-15T04:08:09;99639.72;;;7.88;100.00
18436;BME280;9346;52.006;4.720;2023-01-15T04:10:51;99641.66;;;7.88;100.00
18436;BME280;9346;52.006;4.720;2023-01-15T04:13:19;99646.84;;;7.89;100.00
18436;BME280;9346;52.006;4.720;2023-01-15T04:15:48;99645.75;;;7.90;100.00
18436;BME280;9346;52.006;4.720;2023-01-15T04:18:16;99640.25;;;7.90;100.00
18436;BME280;9346;52.006;4.720;2023-01-15T04:20:43;99642.72;;;7.92;100.00
18436;BME280;9346;52.006;4.720;2023-01-15T04:23:10;99640.25;;;7.90;100.00
18436;BME280;9346;52.006;4.720;2023-01-15T04:25:38;99642.16;;;7.90;100.00
18436;BME280;9346;52.006;4.720;2023-01-15T04:28:05;99644.09;;;7.89;100.00
18436;BME280;9346;52.006;4.720;2023-01-15T04:30:33;99644.63;;;7.91;100.00
18436;BME280;9346;52.006;4.720;2023-01-15T04:33:02;99644.63;;;7.91;100.00
18436;BME280;9346;52.006;4.720;2023-01-15T04:35:29;99641.09;;;7.91;100.00
18436;BME280;9346;52.006;4.720;2023-01-15T04:37:56;99637.22;;;7.92;100.00
18436;BME280;9346;52.006;4.720;2023-01-15T04:40:24;99638.63;;;7.89;100.00
18436;BME280;9346;52.006;4.720;2023-01-15T04:43:09;99642.44;;;7.88;100.00
18436;BME280;9346;52.006;4.720;2023-01-15T04:45:53;99626.00;;;7.88;100.00
18436;BME280;9346;52.006;4.720;2023-01-15T04:48:22;99634.22;;;7.88;100.00
18436;BME280;9346;52.006;4.720;2023-01-15T04:50:50;99639.72;;;7.88;100.00
18436;BME280;9346;52.006;4.720;2023-01-15T04:53:17;99627.38;;;7.91;100.00
18436;BME280;9346;52.006;4.720;2023-01-15T04:55:44;99639.97;;;7.92;100.00
18436;BME280;9346;52.006;4.720;2023-01-15T04:58:11;99632.84;;;7.91;100.00
18436;BME280;9346;52.006;4.720;2023-01-15T05:00:39;99634.78;;;7.90;100.00
18436;BME280;9346;52.006;4.720;2023-01-15T05:03:06;99628.16;;;7.91;100.00
18436;BME280;9346;52.006;4.720;2023-01-15T05:05:34;99628.72;;;7.93;100.00
18436;BME280;9346;52.006;4.720;2023-01-15T05:08:01;99630.13;;;7.91;100.00
18436;BME280;9346;52.006;4.720;2023-01-15T05:10:28;99623.25;;;7.88;100.00
18436;BME280;9346;52.006;4.720;2023-01-15T05:12:55;99626.00;;;7.88;100.00
18436;BME280;9346;52.006;4.720;2023-01-15T05:15:22;99622.19;;;7.89;100.00
18436;BME280;9346;52.006;4.720;2023-01-15T05:17:48;99619.44;;;7.89;100.00
18436;BME280;9346;52.006;4.720;2023-01-15T05:20:16;99618.34;;;7.85;100.00
18436;BME280;9346;52.006;4.720;2023-01-15T05:22:44;99617.56;;;7.85;100.00
18436;BME280;9346;52.006;4.720;2023-01-15T05:25:12;99613.97;;;7.84;100.00
18436;BME280;9346;52.006;4.720;2023-01-15T05:27:39;99621.38;;;7.84;100.00
18436;BME280;9346;52.006;4.720;2023-01-15T05:30:08;99608.22;;;7.86;100.00
18436;BME280;9346;52.006;4.720;2023-01-15T05:32:35;99615.59;;;7.85;100.00
18436;BME280;9346;52.006;4.720;2023-01-15T05:35:01;99610.69;;;7.82;100.00
18436;BME280;9346;52.006;4.720;2023-01-15T05:37:29;99610.19;;;7.80;100.00
18436;BME280;9346;52.006;4.720;2023-01-15T05:39:57;99621.13;;;7.80;100.00
18436;BME280;9346;52.006;4.720;2023-01-15T05:42:24;99613.19;;;7.79;100.00
18436;BME280;9346;52.006;4.720;2023-01-15T05:44:51;99612.38;;;7.78;100.00
18436;BME280;9346;52.006;4.720;2023-01-15T05:47:18;99616.22;;;7.77;100.00
18436;BME280;9346;52.006;4.720;2023-01-15T05:49:45;99616.75;;;7.79;100.00
18436;BME280;9346;52.006;4.720;2023-01-15T05:52:14;99618.13;;;7.77;100.00
18436;BME280;9346;52.006;4.720;2023-01-15T05:54:41;99629.38;;;7.75;100.00
18436;BME280;9346;52.006;4.720;2023-01-15T05:57:11;99609.97;;;7.72;100.00
18436;BME280;9346;52.006;4.720;2023-01-15T05:59:39;99629.19;;;7.67;100.00
18436;BME280;9346;52.006;4.720;2023-01-15T06:02:06;99629.75;;;7.64;100.00
18436;BME280;9346;52.006;4.720;2023-01-15T06:04:33;99634.44;;;7.58;100.00
18436;BME280;9346;52.006;4.720;2023-01-15T06:07:00;99634.19;;;7.55;100.00
18436;BME280;9346;52.006;4.720;2023-01-15T06:09:26;99631.72;;;7.53;100.00
18436;BME280;9346;52.006;4.720;2023-01-15T06:11:54;99638.84;;;7.54;100.00
18436;BME280;9346;52.006;4.720;2023-01-15T06:14:23;99643.78;;;7.52;100.00
18436;BME280;9346;52.006;4.720;2023-01-15T06:16:50;99643.53;;;7.49;100.00
18436;BME280;9346;52.006;4.720;2023-01-15T06:19:17;99643.00;;;7.47;100.00
18436;BME280;9346;52.006;4.720;2023-01-15T06:21:44;99646.03;;;7.45;100.00
18436;BME280;9346;52.006;4.720;2023-01-15T06:24:11;99653.19;;;7.41;100.00
18436;BME280;9346;52.006;4.720;2023-01-15T06:26:40;99651.81;;;7.39;100.00
18436;BME280;9346;52.006;4.720;2023-01-15T06:29:08;99647.16;;;7.34;100.00
18436;BME280;9346;52.006;4.720;2023-01-15T06:31:36;99644.41;;;7.34;100.00
18436;BME280;9346;52.006;4.720;2023-01-15T06:34:03;99646.59;;;7.37;100.00
18436;BME280;9346;52.006;4.720;2023-01-15T06:36:30;99644.41;;;7.39;100.00
18436;BME280;9346;52.006;4.720;2023-01-15T06:38:57;99655.38;;;7.39;100.00
18436;BME280;9346;52.006;4.720;2023-01-15T06:41:25;99639.22;;;7.38;100.00
18436;BME280;9346;52.006;4.720;2023-01-15T06:44:11;99641.13;;;7.37;100.00
18436;BME280;9346;52.006;4.720;2023-01-15T06:47:14;99632.66;;;7.34;100.00
18436;BME280;9346;52.006;4.720;2023-01-15T06:49:48;99631.84;;;7.33;100.00
18436;BME280;9346;52.006;4.720;2023-01-15T06:52:15;99625.56;;;7.33;100.00
18436;BME280;9346;52.006;4.720;2023-01-15T06:54:42;99625.56;;;7.33;100.00
18436;BME280;9346;52.006;4.720;2023-01-15T06:57:09;99621.16;;;7.32;100.00
18436;BME280;9346;52.006;4.720;2023-01-15T06:59:36;99620.09;;;7.28;100.00
18436;BME280;9346;52.006;4.720;2023-01-15T07:02:02;99623.94;;;7.27;100.00
18436;BME280;9346;52.006;4.720;2023-01-15T07:04:31;99625.84;;;7.26;100.00
18436;BME280;9346;52.006;4.720;2023-01-15T07:06:58;99626.13;;;7.25;100.00
18436;BME280;9346;52.006;4.720;2023-01-15T07:09:25;99628.88;;;7.25;100.00
18436;BME280;9346;52.006;4.720;2023-01-15T07:11:52;99627.25;;;7.24;100.00
18436;BME280;9346;52.006;4.720;2023-01-15T07:14:22;99635.47;;;7.24;100.00
18436;BME280;9346;52.006;4.720;2023-01-15T07:16:49;99622.03;;;7.22;100.00
18436;BME280;9346;52.006;4.720;2023-01-15T07:19:16;99628.59;;;7.21;100.00
18436;BME280;9346;52.006;4.720;2023-01-15T07:21:46;99621.50;;;7.20;100.00
18436;BME280;9346;52.006;4.720;2023-01-15T07:24:13;99626.69;;;7.22;100.00
18436;BME280;9346;52.006;4.720;2023-01-15T07:26:41;99635.19;;;7.20;100.00
18436;BME280;9346;52.006;4.720;2023-01-15T07:29:09;99631.34;;;7.21;100.00
18436;BME280;9346;52.006;4.720;2023-01-15T07:31:37;99625.88;;;7.21;100.00
18436;BME280;9346;52.006;4.720;2023-01-15T07:34:05;99623.13;;;7.21;100.00
18436;BME280;9346;52.006;4.720;2023-01-15T07:36:32;99626.69;;;7.22;100.00
18436;BME280;9346;52.006;4.720;2023-01-15T07:39:02;99625.88;;;7.21;100.00
18436;BME280;9346;52.006;4.720;2023-01-15T07:41:29;99621.22;;;7.22;100.00
18436;BME280;9346;52.006;4.720;2023-01-15T07:44:13;99619.81;;;7.24;100.00
18436;BME280;9346;52.006;4.720;2023-01-15T07:46:58;99617.91;;;7.25;100.00
18436;BME280;9346;52.006;4.720;2023-01-15T07:49:42;99617.09;;;7.24;100.00
18436;BME280;9346;52.006;4.720;2023-01-15T07:52:14;99617.09;;;7.24;100.00
18436;BME280;9346;52.006;4.720;2023-01-15T07:54:43;99617.09;;;7.24;100.00
18436;BME280;9346;52.006;4.720;2023-01-15T07:57:12;99624.22;;;7.25;100.00
18436;BME280;9346;52.006;4.720;2023-01-15T07:59:39;99623.41;;;7.25;100.00
18436;BME280;9346;52.006;4.720;2023-01-15T08:02:06;99608.88;;;7.24;100.00
18436;BME280;9346;52.006;4.720;2023-01-15T08:04:34;99606.97;;;7.25;100.00
18436;BME280;9346;52.006;4.720;2023-01-15T08:07:02;99621.50;;;7.25;100.00
18436;BME280;9346;52.006;4.720;2023-01-15T08:09:29;99613.00;;;7.27;100.00
18436;BME280;9346;52.006;4.720;2023-01-15T08:11:59;99612.16;;;7.26;100.00
18436;BME280;9346;52.006;4.720;2023-01-15T08:14:44;99619.81;;;7.29;100.00
18436;BME280;9346;52.006;4.720;2023-01-15T08:17:28;99628.03;;;7.29;100.00
18436;BME280;9346;52.006;4.720;2023-01-15T08:19:55;99627.19;;;7.34;100.00
18436;BME280;9346;52.006;4.720;2023-01-15T08:22:22;99632.34;;;7.40;100.00
18436;BME280;9346;52.006;4.720;2023-01-15T08:24:49;99631.25;;;7.41;100.00
18436;BME280;9346;52.006;4.720;2023-01-15T08:27:17;99627.69;;;7.46;100.00
18436;BME280;9346;52.006;4.720;2023-01-15T08:29:44;99626.28;;;7.48;100.00
18436;BME280;9346;52.006;4.720;2023-01-15T08:32:11;99619.19;;;7.47;100.00
18436;BME280;9346;52.006;4.720;2023-01-15T08:34:38;99614.22;;;7.49;100.00
18436;BME280;9346;52.006;4.720;2023-01-15T08:37:05;99624.06;;;7.50;100.00
18436;BME280;9346;52.006;4.720;2023-01-15T08:39:33;99622.69;;;7.53;100.00
18436;BME280;9346;52.006;4.720;2023-01-15T08:42:00;99621.59;;;7.54;100.00
18436;BME280;9346;52.006;4.720;2023-01-15T08:44:28;99624.31;;;7.54;100.00
18436;BME280;9346;52.006;4.720;2023-01-15T08:46:55;99628.41;;;7.56;100.00
18436;BME280;9346;52.006;4.720;2023-01-15T08:49:23;99627.06;;;7.59;100.00
18436;BME280;9346;52.006;4.720;2023-01-15T08:51:50;99628.69;;;7.60;100.00
18436;BME280;9346;52.006;4.720;2023-01-15T08:54:19;99630.56;;;7.64;100.00
18436;BME280;9346;52.006;4.720;2023-01-15T08:56:47;99639.31;;;7.66;100.00
18436;BME280;9346;52.006;4.720;2023-01-15T08:59:14;99622.88;;;7.66;100.00
18436;BME280;9346;52.006;4.720;2023-01-15T09:01:42;99627.78;;;7.69;100.00
18436;BME280;9346;52.006;4.720;2023-01-15T09:04:12;99627.22;;;7.72;100.00
18436;BME280;9346;52.006;4.720;2023-01-15T09:06:39;99626.66;;;7.75;100.00
18436;BME280;9346;52.006;4.720;2023-01-15T09:09:07;99638.16;;;7.77;100.00
18436;BME280;9346;52.006;4.720;2023-01-15T09:11:34;99617.56;;;7.80;100.00
18436;BME280;9346;52.006;4.720;2023-01-15T09:14:04;99629.09;;;7.82;100.00
18436;BME280;9346;52.006;4.720;2023-01-15T09:16:32;99632.91;;;7.81;100.00
18436;BME280;9346;52.006;4.720;2023-01-15T09:19:00;99627.13;;;7.82;100.00
18436;BME280;9346;52.006;4.720;2023-01-15T09:21:27;99635.91;;;7.84;100.00
18436;BME280;9346;52.006;4.720;2023-01-15T09:23:54;99631.25;;;7.85;100.00
18436;BME280;9346;52.006;4.720;2023-01-15T09:26:27;99621.34;;;7.89;100.00
18436;BME280;9346;52.006;4.720;2023-01-15T09:28:55;99623.81;;;7.90;100.00
18436;BME280;9346;52.006;4.720;2023-01-15T09:31:22;99623.22;;;7.93;100.00
18436;BME280;9346;52.006;4.720;2023-01-15T09:33:49;99635.00;;;7.94;100.00
18436;BME280;9346;52.006;4.720;2023-01-15T09:36:22;99630.34;;;7.94;100.00
18436;BME280;9346;52.006;4.720;2023-01-15T09:38:50;99638.00;;;7.97;100.00
18436;BME280;9346;52.006;4.720;2023-01-15T09:41:16;99634.69;;;8.00;100.00
18436;BME280;9346;52.006;4.720;2023-01-15T09:44:12;99632.50;;;8.02;100.00
18436;BME280;9346;52.006;4.720;2023-01-15T09:46:49;99633.00;;;8.04;100.00
18436;BME280;9346;52.006;4.720;2023-01-15T09:49:32;99612.94;;;8.09;100.00
18436;BME280;9346;52.006;4.720;2023-01-15T09:52:08;99622.78;;;8.15;100.00
18436;BME280;9346;52.006;4.720;2023-01-15T09:54:55;99622.78;;;8.15;100.00
18436;BME280;9346;52.006;4.720;2023-01-15T09:57:26;99623.88;;;8.14;100.00
18436;BME280;9346;52.006;4.720;2023-01-15T09:59:54;99634.56;;;8.15;100.00
18436;BME280;9346;52.006;4.720;2023-01-15T10:02:29;99640.34;;;8.14;100.00
18436;BME280;9346;52.006;4.720;2023-01-15T10:05:04;99644.50;;;8.06;100.00
18436;BME280;9346;52.006;4.720;2023-01-15T10:07:39;99650.56;;;8.03;100.00
18436;BME280;9346;52.006;4.720;2023-01-15T10:10:11;99643.75;;;8.01;100.00
18436;BME280;9346;52.006;4.720;2023-01-15T10:12:42;99651.44;;;7.99;100.00
18436;BME280;9346;52.006;4.720;2023-01-15T10:15:23;99641.81;;;8.01;100.00
18436;BME280;9346;52.006;4.720;2023-01-15T10:17:56;99651.41;;;8.04;100.00
18436;BME280;9346;52.006;4.720;2023-01-15T10:20:38;99646.69;;;8.09;100.00
18436;BME280;9346;52.006;4.720;2023-01-15T10:23:19;99664.16;;;8.18;100.00
18436;BME280;9346;52.006;4.720;2023-01-15T10:26:01;99668.25;;;8.21;100.00
18436;BME280;9346;52.006;4.720;2023-01-15T10:28:57;99666.88;;;8.23;100.00
18436;BME280;9346;52.006;4.720;2023-01-15T10:31:33;99663.56;;;8.26;100.00
18436;BME280;9346;52.006;4.720;2023-01-15T10:34:18;99670.97;;;8.26;100.00
18436;BME280;9346;52.006;4.720;2023-01-15T10:36:54;99671.25;;;8.24;100.00
18436;BME280;9346;52.006;4.720;2023-01-15T10:39:29;99668.78;;;8.28;100.00
18436;BME280;9346;52.006;4.720;2023-01-15T10:42:07;99672.28;;;8.33;100.00
18436;BME280;9346;52.006;4.720;2023-01-15T10:44:45;99678.84;;;8.37;100.00
18436;BME280;9346;52.006;4.720;2023-01-15T10:47:17;99660.72;;;8.41;100.00
18436;BME280;9346;52.006;4.720;2023-01-15T10:49:45;99657.91;;;8.46;100.00
18436;BME280;9346;52.006;4.720;2023-01-15T10:52:22;99676.78;;;8.53;100.00
18436;BME280;9346;52.006;4.720;2023-01-15T10:54:53;99662.72;;;8.59;100.00
18436;BME280;9346;52.006;4.720;2023-01-15T10:57:27;99668.16;;;8.64;100.00
18436;BME280;9346;52.006;4.720;2023-01-15T11:00:02;99664.66;;;8.59;100.00
18436;BME280;9346;52.006;4.720;2023-01-15T11:02:32;99679.25;;;8.54;100.00
18436;BME280;9346;52.006;4.720;2023-01-15T11:05:02;99688.56;;;8.53;100.00
18436;BME280;9346;52.006;4.720;2023-01-15T11:07:35;99686.16;;;8.47;100.00
18436;BME280;9346;52.006;4.720;2023-01-15T11:10:11;99694.97;;;8.44;100.00
18436;BME280;9346;52.006;4.720;2023-01-15T11:12:39;99702.44;;;8.38;100.00
18436;BME280;9346;52.006;4.720;2023-01-15T11:15:28;99685.16;;;8.38;100.00
18436;BME280;9346;52.006;4.720;2023-01-15T11:18:21;99687.13;;;8.32;100.00
18436;BME280;9346;52.006;4.720;2023-01-15T11:21:10;99684.38;;;8.32;100.00
18436;BME280;9346;52.006;4.720;2023-01-15T11:23:38;99683.25;;;8.33;100.00
18436;BME280;9346;52.006;4.720;2023-01-15T11:26:16;99681.34;;;8.34;100.00
18436;BME280;9346;52.006;4.720;2023-01-15T11:28:45;99687.59;;;8.39;100.00
18436;BME280;9346;52.006;4.720;2023-01-15T11:31:13;99673.28;;;8.47;100.00
18436;BME280;9346;52.006;4.720;2023-01-15T11:33:43;99673.78;;;8.49;100.00
18436;BME280;9346;52.006;4.720;2023-01-15T11:36:20;99671.03;;;8.49;100.00
18436;BME280;9346;52.006;4.720;2023-01-15T11:38:49;99672.09;;;8.53;100.00
18436;BME280;9346;52.006;4.720;2023-01-15T11:41:21;99664.41;;;8.55;100.00
18436;BME280;9346;52.006;4.720;2023-01-15T11:43:55;99659.69;;;8.61;100.00
18436;BME280;9346;52.006;4.720;2023-01-15T11:46:39;99664.31;;;8.65;100.00
18436;BME280;9346;52.006;4.720;2023-01-15T11:49:24;99659.47;;;8.57;100.00
18436;BME280;9346;52.006;4.720;2023-01-15T11:52:10;99654.25;;;8.56;100.00
18436;BME280;9346;52.006;4.720;2023-01-15T11:54:41;99648.78;;;8.56;100.00
18436;BME280;9346;52.006;4.720;2023-01-15T11:57:11;99668.28;;;8.54;100.00
18436;BME280;9346;52.006;4.720;2023-01-15T11:59:39;99679.09;;;8.41;100.00
18436;BME280;9346;52.006;4.720;2023-01-15T12:02:15;99698.94;;;8.33;100.00
18436;BME280;9346;52.006;4.720;2023-01-15T12:04:48;99691.28;;;8.25;100.00
18436;BME280;9346;52.006;4.720;2023-01-15T12:07:17;99688.31;;;8.16;100.00
18436;BME280;9346;52.006;4.720;2023-01-15T12:10:10;99678.47;;;8.15;100.00
18436;BME280;9346;52.006;4.720;2023-01-15T12:12:50;99679.53;;;8.14;100.00
18436;BME280;9346;52.006;4.720;2023-01-15T12:15:38;99679.25;;;8.16;100.00
18436;BME280;9346;52.006;4.720;2023-01-15T12:18:26;99690.22;;;8.16;100.00
18436;BME280;9346;52.006;4.720;2023-01-15T12:21:02;99699.84;;;8.13;100.00
18436;BME280;9346;52.006;4.720;2023-01-15T12:23:43;99698.53;;;8.06;100.00
18436;BME280;9346;52.006;4.720;2023-01-15T12:26:18;99691.69;;;8.03;100.00
18436;BME280;9346;52.006;4.720;2023-01-15T12:28:54;99695.00;;;8.05;100.00
18436;BME280;9346;52.006;4.720;2023-01-15T12:31:28;99690.84;;;8.08;100.00
18436;BME280;9346;52.006;4.720;2023-01-15T12:34:01;99699.88;;;8.08;100.00
18436;BME280;9346;52.006;4.720;2023-01-15T12:36:35;99688.63;;;8.10;100.00
18436;BME280;9346;52.006;4.720;2023-01-15T12:39:09;99683.69;;;8.12;100.00
18436;BME280;9346;52.006;4.720;2023-01-15T12:41:43;99683.41;;;8.08;100.00
18436;BME280;9346;52.006;4.720;2023-01-15T12:44:35;99690.50;;;8.14;100.00
18436;BME280;9346;52.006;4.720;2023-01-15T12:47:28;99690.50;;;8.14;100.00
18436;BME280;9346;52.006;4.720;2023-01-15T12:49:59;99681.19;;;8.15;100.00
18436;BME280;9346;52.006;4.720;2023-01-15T12:52:34;99688.00;;;8.23;100.00
18436;BME280;9346;52.006;4.720;2023-01-15T12:55:08;99673.50;;;8.22;100.00
18436;BME280;9346;52.006;4.720;2023-01-15T12:57:41;99692.34;;;8.29;100.00
18436;BME280;9346;52.006;4.720;2023-01-15T13:00:14;99693.94;;;8.35;100.00
18436;BME280;9346;52.006;4.720;2023-01-15T13:02:56;99678.81;;;8.42;100.00
18436;BME280;9346;52.006;4.720;2023-01-15T13:05:28;99690.53;;;8.48;100.00
18436;BME280;9346;52.006;4.720;2023-01-15T13:07:59;99684.47;;;8.51;100.00
18436;BME280;9346;52.006;4.720;2023-01-15T13:10:30;99682.00;;;8.54;100.00
18436;BME280;9346;52.006;4.720;2023-01-15T13:13:12;99684.16;;;8.57;100.00
18436;BME280;9346;52.006;4.720;2023-01-15T13:15:50;99683.59;;;8.60;100.00
18436;BME280;9346;52.006;4.720;2023-01-15T13:18:29;99680.78;;;8.65;100.00
18436;BME280;9346;52.006;4.720;2023-01-15T13:21:04;99669.78;;;8.65;100.00
18436;BME280;9346;52.006;4.720;2023-01-15T13:23:47;99685.69;;;8.68;100.00
18436;BME280;9346;52.006;4.720;2023-01-15T13:26:52;99670.03;;;8.69;100.00
18436;BME280;9346;52.006;4.720;2023-01-15T13:29:28;99663.44;;;8.70;100.00
18436;BME280;9346;52.006;4.720;2023-01-15T13:32:05;99684.81;;;8.73;100.00
18436;BME280;9346;52.006;4.720;2023-01-15T13:34:38;99679.59;;;8.76;100.00